Poe, West Virginia
Current Conditions -  °F | °C
As of 8:51 PM on Sunday 21 Dec 2014 (Local Time) from KBKW Reporting Station
Clear Clear  
Wind Chill: 30°   Ceiling: Unl
Heat Index: 37°   Visibility: 10mi
Dew Point: 29°   Wind: 9mph
Humidity: 73%   Direction: 140°SE
Pressure: 30.12"   Gusts: NA
Location:  38.2212°N, 80.9257°W
Report Text: KBKW 220151Z AUTO 14008KT 10SM CLR 03/M02 A3012 RMK AO2 SLP223 T00281017
Loading
Personal Weather Stations






























Interactive Weather Map New forecast layout! Learn more

10-Day Weather Forecast

Advertisements
Track Severe Weather on mobile